createdAt,value
2023-04-26T00:00:09.367Z,94493.11
2023-04-26T00:03:00.299Z,94496.19
2023-04-26T00:05:29.904Z,94498.34
2023-04-26T00:07:58.677Z,94496.27
2023-04-26T00:10:27.480Z,94497.98
2023-04-26T00:12:55.802Z,94496.56
2023-04-26T00:15:24.065Z,94500.25
2023-04-26T00:17:52.728Z,94501.25
2023-04-26T00:20:21.139Z,94504.80
2023-04-26T00:22:49.415Z,94511.99
2023-04-26T00:25:17.608Z,94514.27
2023-04-26T00:27:46.055Z,94517.90
2023-04-26T00:30:15.081Z,94520.55
2023-04-26T00:32:43.290Z,94516.26
2023-04-26T00:35:11.646Z,94518.64
2023-04-26T00:37:39.808Z,94524.96
2023-04-26T00:40:09.086Z,94523.63
2023-04-26T00:42:39.475Z,94524.79
2023-04-26T00:45:08.321Z,94529.52
2023-04-26T00:47:36.660Z,94531.88
2023-04-26T00:50:08.144Z,94531.20
2023-04-26T00:52:37.066Z,94535.99
2023-04-26T00:55:06.055Z,94537.39
2023-04-26T00:57:34.271Z,94536.67
2023-04-26T01:00:02.420Z,94536.09
2023-04-26T01:02:30.785Z,94535.77
2023-04-26T01:04:59.090Z,94534.70
2023-04-26T01:07:27.273Z,94538.38
2023-04-26T01:09:56.775Z,94540.43
2023-04-26T01:12:25.832Z,94539.68
2023-04-26T01:14:55.257Z,94544.51
2023-04-26T01:17:24.713Z,94548.74
2023-04-26T01:19:52.916Z,94547.82
2023-04-26T01:22:21.310Z,94551.22
2023-04-26T01:24:51.810Z,94553.59
2023-04-26T01:27:19.961Z,94557.16
2023-04-26T01:29:49.026Z,94557.58
2023-04-26T01:32:17.203Z,94555.28
2023-04-26T01:34:45.325Z,94554.23
2023-04-26T01:37:13.629Z,94553.36
2023-04-26T01:39:41.791Z,94559.92
2023-04-26T01:42:09.944Z,94560.62
2023-04-26T01:44:38.077Z,94561.74
2023-04-26T01:47:06.356Z,94565.34
2023-04-26T01:49:34.726Z,94562.19
2023-04-26T01:52:03.141Z,94561.60
2023-04-26T01:54:31.606Z,94560.98
2023-04-26T01:57:02.728Z,94558.70
2023-04-26T01:59:31.004Z,94562.59
2023-04-26T02:02:00.389Z,94558.58
2023-04-26T02:04:29.496Z,94559.79
2023-04-26T02:06:57.653Z,94561.70
2023-04-26T02:09:25.807Z,94560.10
2023-04-26T02:11:53.927Z,94557.41
2023-04-26T02:14:22.119Z,94557.23
2023-04-26T02:16:51.912Z,94557.20
2023-04-26T02:19:20.290Z,94558.02
2023-04-26T02:21:56.237Z,94560.74
2023-04-26T02:24:25.002Z,94559.26
2023-04-26T02:26:54.819Z,94560.90
2023-04-26T02:29:36.416Z,94564.42
2023-04-26T02:32:10.904Z,94563.80
2023-04-26T02:34:39.246Z,94563.71
2023-04-26T02:37:07.723Z,94564.86
2023-04-26T02:39:36.389Z,94570.80
2023-04-26T02:42:08.955Z,94573.75
2023-04-26T02:44:39.813Z,94578.50
2023-04-26T02:47:08.548Z,94577.73
2023-04-26T02:49:36.982Z,94579.88
2023-04-26T02:52:05.305Z,94582.70
2023-04-26T02:54:33.784Z,94581.63
2023-04-26T02:57:01.968Z,94589.70
2023-04-26T02:59:30.351Z,94586.05
2023-04-26T03:01:58.416Z,94587.18
2023-04-26T03:04:26.561Z,94585.34
2023-04-26T03:06:55.643Z,94587.36
2023-04-26T03:09:23.816Z,94593.91
2023-04-26T03:11:52.273Z,94592.33
2023-04-26T03:14:20.993Z,94593.45
2023-04-26T03:16:49.285Z,94598.45
2023-04-26T03:19:17.635Z,94601.31
2023-04-26T03:21:45.986Z,94605.52
2023-04-26T03:24:14.398Z,94607.48
2023-04-26T03:26:42.601Z,94612.13
2023-04-26T03:29:10.863Z,94616.27
2023-04-26T03:31:39.157Z,94617.73
2023-04-26T03:34:08.137Z,94624.00
2023-04-26T03:36:36.400Z,94627.73
2023-04-26T03:39:06.288Z,94631.80
2023-04-26T03:41:37.009Z,94635.74
2023-04-26T03:44:06.319Z,94637.54
2023-04-26T03:46:34.481Z,94641.39
2023-04-26T03:49:02.672Z,94644.95
2023-04-26T03:51:31.465Z,94647.23
2023-04-26T03:53:59.944Z,94647.71
2023-04-26T03:56:28.141Z,94652.07
2023-04-26T03:58:56.926Z,94654.98
2023-04-26T04:01:26.038Z,94656.48
2023-04-26T04:03:54.496Z,94659.32
2023-04-26T04:06:22.960Z,94662.23
2023-04-26T04:08:51.937Z,94667.45
2023-04-26T04:11:20.522Z,94668.21
2023-04-26T04:13:48.924Z,94669.50
2023-04-26T04:16:17.277Z,94669.88
2023-04-26T04:18:45.410Z,94672.59
2023-04-26T04:21:13.567Z,94677.62
2023-04-26T04:23:42.337Z,94680.58
2023-04-26T04:26:12.682Z,94685.99
2023-04-26T04:28:42.079Z,94687.92
2023-04-26T04:31:10.395Z,94693.95
2023-04-26T04:33:38.930Z,94698.46
2023-04-26T04:36:08.425Z,94701.83
2023-04-26T04:38:37.448Z,94700.64
2023-04-26T04:41:08.623Z,94707.31
2023-04-26T04:43:37.290Z,94709.65
2023-04-26T04:46:05.762Z,94712.73
2023-04-26T04:48:35.689Z,94716.33
2023-04-26T04:51:03.993Z,94718.47
2023-04-26T04:53:32.184Z,94718.91
2023-04-26T04:56:00.569Z,94722.80
2023-04-26T04:58:28.863Z,94726.54
2023-04-26T05:01:01.354Z,94728.97
2023-04-26T05:03:34.060Z,94733.09
2023-04-26T05:06:03.222Z,94734.51
2023-04-26T05:08:31.490Z,94729.77
2023-04-26T05:11:03.211Z,94736.17
2023-04-26T05:13:31.526Z,94733.88
2023-04-26T05:15:59.718Z,94732.98
2023-04-26T05:18:27.969Z,94734.38
2023-04-26T05:20:57.525Z,94734.52
2023-04-26T05:23:26.635Z,94740.85
2023-04-26T05:25:55.012Z,94742.59
2023-04-26T05:28:43.584Z,94745.18
2023-04-26T05:31:24.709Z,94746.42
2023-04-26T05:34:07.888Z,94747.98
2023-04-26T05:36:38.694Z,94751.88
2023-04-26T05:39:08.026Z,94750.31
2023-04-26T05:41:36.412Z,94750.02
2023-04-26T05:44:04.768Z,94755.06
2023-04-26T05:46:33.528Z,94758.60
2023-04-26T05:49:01.916Z,94762.45
2023-04-26T05:51:30.429Z,94765.16
2023-04-26T05:53:59.074Z,94768.29
2023-04-26T05:56:27.188Z,94768.65
2023-04-26T05:58:57.738Z,94773.09
2023-04-26T06:01:26.462Z,94770.55
2023-04-26T06:03:57.925Z,94775.64
2023-04-26T06:06:29.938Z,94776.70
2023-04-26T06:08:58.398Z,94777.27
2023-04-26T06:11:26.987Z,94775.05
2023-04-26T06:13:55.725Z,94779.20
2023-04-26T06:16:24.152Z,94782.16
2023-04-26T06:18:52.522Z,94781.98
2023-04-26T06:21:23.548Z,94787.28
2023-04-26T06:23:53.860Z,94789.64
2023-04-26T06:26:23.221Z,94790.23
2023-04-26T06:28:51.649Z,94793.60
2023-04-26T06:31:21.876Z,94801.52
2023-04-26T06:33:51.674Z,94799.58
2023-04-26T06:36:20.202Z,94800.34
2023-04-26T06:38:49.005Z,94808.50
2023-04-26T06:41:18.025Z,94813.64
2023-04-26T06:43:50.779Z,94812.67
2023-04-26T06:46:24.630Z,94817.94
2023-04-26T06:48:57.874Z,94821.11
2023-04-26T06:51:27.022Z,94826.02
2023-04-26T06:53:57.375Z,94828.61
2023-04-26T06:56:26.547Z,94826.17
2023-04-26T06:59:05.808Z,94826.29
2023-04-26T07:01:35.353Z,94822.81
2023-04-26T07:04:05.054Z,94831.59
2023-04-26T07:06:33.917Z,94835.84
2023-04-26T07:09:03.039Z,94843.85
2023-04-26T07:11:32.170Z,94851.09
2023-04-26T07:14:00.601Z,94853.20
2023-04-26T07:16:29.491Z,94852.73
2023-04-26T07:18:58.635Z,94857.70
2023-04-26T07:21:27.012Z,94857.66
2023-04-26T07:23:57.510Z,94860.81
2023-04-26T07:26:28.449Z,94858.25
2023-04-26T07:29:01.540Z,94863.93
2023-04-26T07:31:33.496Z,94868.62
2023-04-26T07:34:05.512Z,94874.06
2023-04-26T07:36:36.515Z,94875.19
2023-04-26T07:39:09.502Z,94879.41
2023-04-26T07:41:41.815Z,94882.89
2023-04-26T07:44:14.509Z,94883.98
2023-04-26T07:46:45.472Z,94888.30
2023-04-26T07:49:16.324Z,94892.75
2023-04-26T07:51:47.467Z,94894.80
2023-04-26T07:54:20.547Z,94897.63
2023-04-26T07:56:52.467Z,94897.84
2023-04-26T07:59:24.168Z,94903.88
2023-04-26T08:01:53.726Z,94907.19
2023-04-26T08:04:34.766Z,94911.60
2023-04-26T08:07:06.496Z,94912.13
2023-04-26T08:09:36.886Z,94915.02
2023-04-26T08:12:07.519Z,94916.75
2023-04-26T08:14:39.049Z,94917.27
2023-04-26T08:17:10.576Z,94916.84
2023-04-26T08:19:41.541Z,94918.80
2023-04-26T08:29:47.099Z,94921.27
2023-04-26T08:32:15.484Z,94920.25
2023-04-26T08:34:43.895Z,94924.91
2023-04-26T08:37:13.068Z,94922.11
2023-04-26T08:39:41.947Z,94926.77
2023-04-26T08:42:17.839Z,94934.06
2023-04-26T08:44:46.707Z,94935.04
2023-04-26T08:47:46.029Z,94936.75
2023-04-26T08:50:15.778Z,94936.10
2023-04-26T08:52:44.847Z,94938.20
2023-04-26T08:55:15.345Z,94940.44
2023-04-26T08:57:46.378Z,94938.30
2023-04-26T09:00:16.566Z,94940.85
2023-04-26T09:02:50.219Z,94947.45
2023-04-26T09:05:24.206Z,94946.42
2023-04-26T09:07:57.666Z,94949.36
2023-04-26T09:10:27.346Z,94950.91
2023-04-26T09:12:56.855Z,94951.96
2023-04-26T09:15:27.549Z,94956.19
2023-04-26T09:18:20.850Z,94958.02
2023-04-26T09:21:04.236Z,94962.00
2023-04-26T09:23:33.133Z,94960.41
2023-04-26T09:26:18.454Z,94961.70
2023-04-26T09:28:47.734Z,94964.90
2023-04-26T09:31:48.686Z,94968.98
2023-04-26T09:34:18.212Z,94968.95
2023-04-26T09:36:52.015Z,94971.67
2023-04-26T09:39:31.535Z,94968.69
2023-04-26T09:42:00.658Z,94970.05
2023-04-26T09:44:31.208Z,94971.42
2023-04-26T09:47:04.448Z,94966.23
2023-04-26T09:49:34.497Z,94964.48
2023-04-26T09:52:04.702Z,94964.42
2023-04-26T09:54:47.859Z,94965.05
2023-04-26T09:57:17.573Z,94963.00
2023-04-26T09:59:48.202Z,94962.93
2023-04-26T10:02:18.803Z,94963.00
2023-04-26T10:04:50.218Z,94961.70
2023-04-26T10:07:20.946Z,94965.63
2023-04-26T10:09:50.341Z,94965.41
2023-04-26T10:12:20.781Z,94964.63
2023-04-26T10:14:49.330Z,94960.82
2023-04-26T10:17:19.994Z,94952.14
2023-04-26T10:19:58.999Z,94954.30
2023-04-26T10:22:36.265Z,94945.23
2023-04-26T10:25:04.928Z,94948.61
2023-04-26T10:27:46.053Z,94953.52
2023-04-26T10:30:16.606Z,94951.16
2023-04-26T10:32:57.529Z,94949.11
2023-04-26T10:35:31.622Z,94944.27
2023-04-26T10:37:59.869Z,94943.29
2023-04-26T10:40:39.357Z,94944.52
2023-04-26T10:43:17.116Z,94939.81
2023-04-26T10:45:47.172Z,94939.44
2023-04-26T10:48:21.240Z,94944.02
2023-04-26T10:51:05.716Z,94941.23
2023-04-26T10:53:48.920Z,94946.40
2023-04-26T10:56:26.234Z,94943.92
2023-04-26T11:01:47.028Z,94948.44
2023-04-26T11:04:16.772Z,94954.77
2023-04-26T11:06:52.937Z,94955.98
2023-04-26T11:09:38.321Z,94963.05
2023-04-26T11:12:12.653Z,94964.44
2023-04-26T11:14:46.187Z,94968.20
2023-04-26T11:17:14.837Z,94968.34
2023-04-26T11:19:43.186Z,94961.15
2023-04-26T11:22:11.870Z,94964.89
2023-04-26T11:24:40.282Z,94967.27
2023-04-26T11:27:10.187Z,94966.08
2023-04-26T11:29:39.042Z,94969.66
2023-04-26T11:32:07.744Z,94972.08
2023-04-26T11:34:38.392Z,94974.46
2023-04-26T11:37:07.876Z,94970.39
2023-04-26T11:39:37.238Z,94974.05
2023-04-26T11:42:10.904Z,94973.80
2023-04-26T11:44:41.322Z,94977.11
2023-04-26T11:47:10.643Z,94978.40
2023-04-26T11:49:39.453Z,94980.44
2023-04-26T11:52:09.081Z,94981.02
2023-04-26T11:54:38.238Z,94984.55
2023-04-26T11:57:18.109Z,94983.02
2023-04-26T11:59:47.097Z,94985.58
2023-04-26T12:02:15.420Z,94987.77
2023-04-26T12:04:45.163Z,94990.48
2023-04-26T12:07:18.972Z,94992.23
2023-04-26T12:09:47.555Z,94989.29
2023-04-26T12:12:15.833Z,94988.88
2023-04-26T12:14:45.657Z,94989.56
2023-04-26T12:17:15.661Z,94988.92
2023-04-26T12:19:44.269Z,94975.61
2023-04-26T12:22:12.541Z,94979.23
2023-04-26T12:24:43.282Z,94981.61
2023-04-26T12:27:21.182Z,94978.13
2023-04-26T12:29:49.348Z,94975.34
2023-04-26T12:32:17.737Z,94976.54
2023-04-26T12:34:46.866Z,94976.20
2023-04-26T12:37:15.313Z,94971.44
2023-04-26T12:39:44.759Z,94968.27
2023-04-26T12:42:13.226Z,94966.08
2023-04-26T12:44:41.884Z,94964.21
2023-04-26T12:47:10.115Z,94968.21
2023-04-26T12:49:38.235Z,94969.37
2023-04-26T12:52:06.824Z,94974.89
2023-04-26T12:54:35.413Z,94967.11
2023-04-26T12:57:03.902Z,94975.34
2023-04-26T12:59:32.312Z,94968.11
2023-04-26T13:02:00.490Z,94971.63
2023-04-26T13:04:29.128Z,94973.10
2023-04-26T13:06:57.834Z,94975.12
2023-04-26T13:09:26.086Z,94977.86
2023-04-26T13:11:54.509Z,94979.95
2023-04-26T13:14:23.598Z,94982.04
2023-04-26T13:16:52.828Z,94985.65
2023-04-26T13:19:20.923Z,94985.50
2023-04-26T13:21:49.238Z,94991.60
2023-04-26T13:24:17.540Z,94992.33
2023-04-26T13:26:45.790Z,94988.18
2023-04-26T13:29:14.054Z,94991.80
2023-04-26T13:31:43.400Z,94989.67
2023-04-26T13:34:13.286Z,94994.79
2023-04-26T13:36:42.208Z,94993.07
2023-04-26T13:39:10.561Z,94996.17
2023-04-26T13:41:39.049Z,94996.64
2023-04-26T13:44:07.242Z,94998.42
2023-04-26T13:46:35.658Z,95000.11
2023-04-26T13:49:04.005Z,95000.46
2023-04-26T13:51:34.208Z,95006.64
2023-04-26T13:54:02.684Z,95005.95
2023-04-26T13:56:30.879Z,95011.58
2023-04-26T13:59:03.702Z,95020.40
2023-04-26T14:01:34.339Z,95025.42
2023-04-26T14:04:04.267Z,95022.88
2023-04-26T14:06:34.439Z,95031.86
2023-04-26T14:09:05.566Z,95030.98
2023-04-26T14:11:33.960Z,95032.02
2023-04-26T14:14:02.536Z,95034.59
2023-04-26T14:16:30.792Z,95034.78
2023-04-26T14:18:59.296Z,95034.27
2023-04-26T14:21:28.102Z,95036.29
2023-04-26T14:23:56.696Z,95038.52
2023-04-26T14:26:26.481Z,95043.42
2023-04-26T14:28:54.622Z,95049.95
2023-04-26T14:31:24.616Z,95046.96
2023-04-26T14:33:53.368Z,95047.95
2023-04-26T14:36:21.976Z,95055.47
2023-04-26T14:38:50.232Z,95056.08
2023-04-26T14:41:19.364Z,95058.91
2023-04-26T14:43:47.610Z,95057.42
2023-04-26T14:46:16.027Z,95057.03
2023-04-26T14:48:45.290Z,95064.43
2023-04-26T14:51:13.774Z,95066.20
2023-04-26T14:53:42.071Z,95065.38
2023-04-26T14:56:10.433Z,95065.39
2023-04-26T14:58:38.708Z,95068.14
2023-04-26T15:01:07.911Z,95070.15
2023-04-26T15:03:36.619Z,95073.23
2023-04-26T15:06:05.006Z,95075.89
2023-04-26T15:08:33.255Z,95073.38
2023-04-26T15:11:01.437Z,95075.11
2023-04-26T15:13:29.712Z,95076.98
2023-04-26T15:15:57.886Z,95080.33
2023-04-26T15:18:25.978Z,95076.69
2023-04-26T15:20:54.146Z,95080.41
2023-04-26T15:23:22.660Z,95082.21
2023-04-26T15:25:51.106Z,95080.42
2023-04-26T15:28:19.480Z,95086.50
2023-04-26T15:30:49.148Z,95088.91
2023-04-26T15:33:17.562Z,95087.59
2023-04-26T15:35:46.191Z,95087.70
2023-04-26T15:38:14.543Z,95085.33
2023-04-26T15:40:42.816Z,95085.84
2023-04-26T15:43:10.996Z,95088.66
2023-04-26T15:45:39.487Z,95089.67
2023-04-26T15:48:07.934Z,95088.86
2023-04-26T15:50:37.368Z,95093.60
2023-04-26T15:53:06.058Z,95094.78
2023-04-26T15:55:34.188Z,95094.80
2023-04-26T15:58:02.608Z,95094.23
2023-04-26T16:00:31.853Z,95100.19
2023-04-26T16:03:00.276Z,95103.34
2023-04-26T16:05:28.680Z,95109.02
2023-04-26T16:07:56.802Z,95113.27
2023-04-26T16:10:25.334Z,95113.50
2023-04-26T16:12:53.663Z,95112.27
2023-04-26T16:15:22.027Z,95114.94
2023-04-26T16:17:50.394Z,95117.52
2023-04-26T16:20:18.785Z,95116.32
2023-04-26T16:22:47.379Z,95113.21
2023-04-26T16:25:17.178Z,95112.20
2023-04-26T16:27:45.539Z,95115.79
2023-04-26T16:30:14.446Z,95119.75
2023-04-26T16:32:42.738Z,95128.77
2023-04-26T16:35:11.094Z,95131.34
2023-04-26T16:37:41.257Z,95129.34
2023-04-26T16:40:11.386Z,95133.94
2023-04-26T16:42:43.546Z,95134.46
2023-04-26T16:45:15.438Z,95135.61
2023-04-26T16:47:44.717Z,95135.61
2023-04-26T16:50:13.249Z,95140.93
2023-04-26T16:52:41.468Z,95137.86
2023-04-26T16:55:09.815Z,95140.61
2023-04-26T16:57:38.249Z,95142.90
2023-04-26T17:00:11.478Z,95149.90
2023-04-26T17:02:40.897Z,95151.27
2023-04-26T17:05:11.017Z,95156.98
2023-04-26T17:07:39.401Z,95158.84
2023-04-26T17:10:08.760Z,95153.19
2023-04-26T17:12:36.826Z,95154.66
2023-04-26T17:15:05.760Z,95158.17
2023-04-26T17:17:34.459Z,95158.38
2023-04-26T17:20:02.638Z,95170.29
2023-04-26T17:22:30.900Z,95171.95
2023-04-26T17:24:59.310Z,95175.27
2023-04-26T17:27:27.568Z,95173.05
2023-04-26T17:29:56.041Z,95176.55
2023-04-26T17:32:24.798Z,95182.09
2023-04-26T17:34:53.114Z,95186.48
2023-04-26T17:37:23.949Z,95185.71
2023-04-26T17:39:52.123Z,95187.63
2023-04-26T17:42:21.026Z,95192.20
2023-04-26T17:44:49.203Z,95195.58
2023-04-26T17:47:17.678Z,95200.23
2023-04-26T17:49:45.957Z,95204.45
2023-04-26T17:52:14.365Z,95205.13
2023-04-26T17:54:42.819Z,95208.14
2023-04-26T17:57:11.230Z,95214.20
2023-04-26T17:59:39.482Z,95216.33
2023-04-26T18:02:08.128Z,95215.59
2023-04-26T18:04:36.513Z,95221.41
2023-04-26T18:07:05.000Z,95224.34
2023-04-26T18:09:33.527Z,95236.33
2023-04-26T18:12:01.899Z,95234.73
2023-04-26T18:14:30.812Z,95243.91
2023-04-26T18:16:59.079Z,95243.60
2023-04-26T18:19:27.691Z,95249.65
2023-04-26T18:21:56.034Z,95250.26
2023-04-26T18:24:24.409Z,95251.34
2023-04-26T18:26:52.586Z,95247.75
2023-04-26T18:29:20.964Z,95251.20
2023-04-26T18:31:50.032Z,95258.09
2023-04-26T18:34:18.960Z,95263.17
2023-04-26T18:36:47.434Z,95260.89
2023-04-26T18:39:15.744Z,95257.49
2023-04-26T18:41:43.903Z,95258.65
2023-04-26T18:44:13.503Z,95257.92
2023-04-26T18:46:43.156Z,95263.48
2023-04-26T18:49:11.600Z,95262.59
2023-04-26T18:51:39.918Z,95262.23
2023-04-26T18:54:08.150Z,95267.34
2023-04-26T18:56:37.812Z,95271.04
2023-04-26T18:59:06.345Z,95273.08
2023-04-26T19:01:34.775Z,95282.91
2023-04-26T19:04:05.854Z,95286.76
2023-04-26T19:06:34.872Z,95290.67
2023-04-26T19:09:04.735Z,95294.77
2023-04-26T19:11:33.224Z,95295.47
2023-04-26T19:14:01.866Z,95295.10
2023-04-26T19:16:30.372Z,95296.86
2023-04-26T19:18:59.032Z,95297.58
2023-04-26T19:21:27.405Z,95299.39
2023-04-26T19:23:55.817Z,95299.82
2023-04-26T19:26:24.069Z,95301.22
2023-04-26T19:28:52.385Z,95302.56
2023-04-26T19:31:21.155Z,95303.97
2023-04-26T19:33:49.219Z,95305.89
2023-04-26T19:36:17.485Z,95306.95
2023-04-26T19:38:45.968Z,95309.69
2023-04-26T19:41:14.187Z,95309.45
2023-04-26T19:43:42.424Z,95310.52
2023-04-26T19:46:15.338Z,95313.38
2023-04-26T19:48:43.696Z,95312.86
2023-04-26T19:51:16.934Z,95312.66
2023-04-26T19:53:45.287Z,95315.71
2023-04-26T19:56:13.669Z,95313.02
2023-04-26T19:58:42.243Z,95318.91
2023-04-26T20:01:10.587Z,95320.24
2023-04-26T20:03:40.865Z,95320.58
2023-04-26T20:06:10.352Z,95317.69
2023-04-26T20:08:38.466Z,95321.20
2023-04-26T20:11:10.488Z,95319.17
2023-04-26T20:13:38.636Z,95319.73
2023-04-26T20:16:07.183Z,95320.95
2023-04-26T20:18:35.729Z,95320.59
2023-04-26T20:21:05.135Z,95319.78
2023-04-26T20:23:33.726Z,95323.84
2023-04-26T20:26:01.994Z,95320.77
2023-04-26T20:28:30.399Z,95324.22
2023-04-26T20:30:58.663Z,95322.39
2023-04-26T20:33:26.887Z,95322.88
2023-04-26T20:35:55.514Z,95325.50
2023-04-26T20:38:24.408Z,95324.66
2023-04-26T20:40:52.709Z,95324.86
2023-04-26T20:43:21.384Z,95329.13
2023-04-26T20:45:51.690Z,95331.06
2023-04-26T20:48:19.896Z,95330.94
2023-04-26T20:50:48.168Z,95330.70
2023-04-26T20:53:16.791Z,95336.02
2023-04-26T20:55:45.123Z,95337.55
2023-04-26T20:58:13.254Z,95338.65
2023-04-26T21:00:42.323Z,95341.59
2023-04-26T21:03:10.719Z,95341.16
2023-04-26T21:05:39.073Z,95348.74
2023-04-26T21:08:07.233Z,95352.58
2023-04-26T21:10:35.542Z,95350.78
2023-04-26T21:13:04.011Z,95351.59
2023-04-26T21:15:33.725Z,95354.66
2023-04-26T21:18:02.275Z,95356.10
2023-04-26T21:20:30.681Z,95361.77
2023-04-26T21:22:59.088Z,95361.45
2023-04-26T21:25:27.639Z,95362.23
2023-04-26T21:27:57.146Z,95362.45
2023-04-26T21:30:25.751Z,95366.72
2023-04-26T21:32:54.147Z,95364.66
2023-04-26T21:35:23.154Z,95365.46
2023-04-26T21:37:51.383Z,95369.15
2023-04-26T21:40:19.768Z,95369.38
2023-04-26T21:43:03.575Z,95373.87
2023-04-26T21:45:32.520Z,95375.13
2023-04-26T21:48:00.690Z,95376.21
2023-04-26T21:50:29.048Z,95377.98
2023-04-26T21:52:57.330Z,95381.44
2023-04-26T21:55:26.024Z,95383.48
2023-04-26T21:57:54.840Z,95383.70
2023-04-26T22:00:23.708Z,95385.57
2023-04-26T22:02:52.163Z,95388.42
2023-04-26T22:05:21.098Z,95389.84
2023-04-26T22:07:49.266Z,95391.20
2023-04-26T22:10:17.884Z,95394.13
2023-04-26T22:12:46.529Z,95401.66
2023-04-26T22:15:14.826Z,95400.05
2023-04-26T22:17:43.325Z,95399.38
2023-04-26T22:20:12.370Z,95402.19
2023-04-26T22:22:41.103Z,95401.94
2023-04-26T22:25:10.074Z,95401.73
2023-04-26T22:27:38.251Z,95403.17
2023-04-26T22:30:23.170Z,95402.14
2023-04-26T22:32:59.654Z,95405.35
2023-04-26T22:35:28.303Z,95401.17
2023-04-26T22:37:56.557Z,95401.30
2023-04-26T22:40:25.067Z,95399.27
2023-04-26T22:42:54.555Z,95403.08
2023-04-26T22:45:23.051Z,95402.60
2023-04-26T22:47:51.543Z,95402.41
2023-04-26T22:50:19.864Z,95401.32
2023-04-26T22:52:48.292Z,95404.13
2023-04-26T22:55:17.180Z,95402.34
2023-04-26T22:57:46.814Z,95400.52
2023-04-26T23:00:16.063Z,95397.73
2023-04-26T23:02:44.326Z,95395.05
2023-04-26T23:05:13.272Z,95400.73
2023-04-26T23:07:41.525Z,95399.64
2023-04-26T23:10:10.062Z,95400.61
2023-04-26T23:12:38.308Z,95399.92
2023-04-26T23:15:07.391Z,95400.56
2023-04-26T23:17:36.032Z,95404.00
2023-04-26T23:20:14.094Z,95401.77
2023-04-26T23:22:43.683Z,95403.29
2023-04-26T23:32:49.411Z,95402.16
2023-04-26T23:35:17.885Z,95404.05
2023-04-26T23:37:46.179Z,95400.73
2023-04-26T23:40:14.670Z,95400.18
2023-04-26T23:42:42.815Z,95401.42
2023-04-26T23:45:11.913Z,95401.97
2023-04-26T23:47:40.260Z,95401.95
2023-04-26T23:50:09.302Z,95400.58
2023-04-26T23:52:37.589Z,95406.21
2023-04-26T23:55:08.113Z,95405.42
2023-04-26T23:57:36.687Z,95404.57
